sensor_id;sensor_type;location;lat;lon;timestamp;temperature;humidity
72602;DHT22;60644;55.858;37.390;2023-03-01T00:02:13;-3.02;50.62
72602;DHT22;60644;55.858;37.390;2023-03-01T00:04:39;-3.06;51.05
72602;DHT22;60644;55.858;37.390;2023-03-01T00:07:05;-3.10;50.54
72602;DHT22;60644;55.858;37.390;2023-03-01T00:09:31;-3.11;52.12
72602;DHT22;60644;55.858;37.390;2023-03-01T00:11:57;-3.13;51.17
72602;DHT22;60644;55.858;37.390;2023-03-01T00:14:22;-3.15;51.41
72602;DHT22;60644;55.858;37.390;2023-03-01T00:16:49;-3.19;51.23
72602;DHT22;60644;55.858;37.390;2023-03-01T00:19:17;-3.21;50.97
72602;DHT22;60644;55.858;37.390;2023-03-01T00:21:44;-3.19;52.66
72602;DHT22;60644;55.858;37.390;2023-03-01T00:24:10;-3.22;51.71
72602;DHT22;60644;55.858;37.390;2023-03-01T00:26:37;-3.23;51.98
72602;DHT22;60644;55.858;37.390;2023-03-01T00:29:03;-3.26;51.89
72602;DHT22;60644;55.858;37.390;2023-03-01T00:31:31;-3.28;53.04
72602;DHT22;60644;55.858;37.390;2023-03-01T00:34:03;-3.37;50.29
72602;DHT22;60644;55.858;37.390;2023-03-01T00:36:33;-3.34;52.17
72602;DHT22;60644;55.858;37.390;2023-03-01T00:39:00;-3.34;52.07
72602;DHT22;60644;55.858;37.390;2023-03-01T00:41:26;-3.35;51.76
72602;DHT22;60644;55.858;37.390;2023-03-01T00:43:53;-3.33;53.08
72602;DHT22;60644;55.858;37.390;2023-03-01T00:46:21;-3.31;53.67
72602;DHT22;60644;55.858;37.390;2023-03-01T00:48:48;-3.31;53.10
72602;DHT22;60644;55.858;37.390;2023-03-01T00:51:20;-3.37;50.35
72602;DHT22;60644;55.858;37.390;2023-03-01T00:53:47;-3.38;52.11
72602;DHT22;60644;55.858;37.390;2023-03-01T00:56:15;-3.39;52.14
72602;DHT22;60644;55.858;37.390;2023-03-01T00:58:43;-3.42;51.79
72602;DHT22;60644;55.858;37.390;2023-03-01T01:01:21;-3.48;51.37
72602;DHT22;60644;55.858;37.390;2023-03-01T01:03:53;-3.55;50.38
72602;DHT22;60644;55.858;37.390;2023-03-01T01:06:28;-3.57;51.17
72602;DHT22;60644;55.858;37.390;2023-03-01T01:08:54;-3.62;51.50
72602;DHT22;60644;55.858;37.390;2023-03-01T01:11:22;-3.66;50.88
72602;DHT22;60644;55.858;37.390;2023-03-01T01:13:49;-3.67;52.39
72602;DHT22;60644;55.858;37.390;2023-03-01T01:16:17;-3.65;52.11
72602;DHT22;60644;55.858;37.390;2023-03-01T01:18:44;-3.63;52.58
72602;DHT22;60644;55.858;37.390;2023-03-01T01:21:13;-3.70;51.09
72602;DHT22;60644;55.858;37.390;2023-03-01T01:23:40;-3.93;51.02
72602;DHT22;60644;55.858;37.390;2023-03-01T01:26:11;-3.96;51.76
72602;DHT22;60644;55.858;37.390;2023-03-01T01:28:38;-4.01;52.00
72602;DHT22;60644;55.858;37.390;2023-03-01T01:31:05;-4.10;52.01
72602;DHT22;60644;55.858;37.390;2023-03-01T01:33:31;-3.98;52.55
72602;DHT22;60644;55.858;37.390;2023-03-01T01:35:57;-3.99;52.20
72602;DHT22;60644;55.858;37.390;2023-03-01T01:38:23;-4.00;52.60
72602;DHT22;60644;55.858;37.390;2023-03-01T01:40:50;-3.93;53.60
72602;DHT22;60644;55.858;37.390;2023-03-01T01:43:21;-4.00;52.82
72602;DHT22;60644;55.858;37.390;2023-03-01T01:45:48;-4.00;52.64
72602;DHT22;60644;55.858;37.390;2023-03-01T01:48:20;-4.00;53.51
72602;DHT22;60644;55.858;37.390;2023-03-01T01:50:57;-3.99;52.62
72602;DHT22;60644;55.858;37.390;2023-03-01T01:53:25;-3.93;53.23
72602;DHT22;60644;55.858;37.390;2023-03-01T01:55:56;-3.95;53.34
72602;DHT22;60644;55.858;37.390;2023-03-01T01:58:26;-3.94;53.49
72602;DHT22;60644;55.858;37.390;2023-03-01T02:00:54;-4.02;53.07
72602;DHT22;60644;55.858;37.390;2023-03-01T02:03:27;-4.05;53.22
72602;DHT22;60644;55.858;37.390;2023-03-01T02:06:07;-4.00;53.37
72602;DHT22;60644;55.858;37.390;2023-03-01T02:08:38;-4.07;53.22
72602;DHT22;60644;55.858;37.390;2023-03-01T02:11:07;-4.07;53.59
72602;DHT22;60644;55.858;37.390;2023-03-01T02:13:34;-4.13;53.51
72602;DHT22;60644;55.858;37.390;2023-03-01T02:16:11;-4.25;54.16
72602;DHT22;60644;55.858;37.390;2023-03-01T02:18:40;-4.27;54.05
72602;DHT22;60644;55.858;37.390;2023-03-01T02:23:53;-4.25;54.37
72602;DHT22;60644;55.858;37.390;2023-03-01T02:26:23;-4.24;54.61
72602;DHT22;60644;55.858;37.390;2023-03-01T02:28:54;-4.26;54.18
72602;DHT22;60644;55.858;37.390;2023-03-01T02:31:21;-4.20;54.69
72602;DHT22;60644;55.858;37.390;2023-03-01T02:34:07;-4.35;54.71
72602;DHT22;60644;55.858;37.390;2023-03-01T02:36:44;-4.25;55.26
72602;DHT22;60644;55.858;37.390;2023-03-01T02:39:14;-4.22;55.30
72602;DHT22;60644;55.858;37.390;2023-03-01T02:41:48;-4.23;54.82
72602;DHT22;60644;55.858;37.390;2023-03-01T02:44:15;-4.31;54.86
72602;DHT22;60644;55.858;37.390;2023-03-01T02:46:43;-4.35;54.62
72602;DHT22;60644;55.858;37.390;2023-03-01T02:49:28;-4.31;54.94
72602;DHT22;60644;55.858;37.390;2023-03-01T02:57:32;-4.44;55.14
72602;DHT22;60644;55.858;37.390;2023-03-01T03:00:03;-4.53;55.37
72602;DHT22;60644;55.858;37.390;2023-03-01T03:02:34;-4.60;55.54
72602;DHT22;60644;55.858;37.390;2023-03-01T03:05:19;-4.56;55.89
72602;DHT22;60644;55.858;37.390;2023-03-01T03:07:47;-4.65;55.74
72602;DHT22;60644;55.858;37.390;2023-03-01T03:10:32;-4.60;56.03
72602;DHT22;60644;55.858;37.390;2023-03-01T03:13:01;-4.60;55.84
72602;DHT22;60644;55.858;37.390;2023-03-01T03:15:28;-4.59;56.23
72602;DHT22;60644;55.858;37.390;2023-03-01T03:17:55;-4.55;56.53
72602;DHT22;60644;55.858;37.390;2023-03-01T03:20:24;-4.55;56.08
72602;DHT22;60644;55.858;37.390;2023-03-01T03:22:53;-4.53;56.55
72602;DHT22;60644;55.858;37.390;2023-03-01T03:25:20;-4.54;56.70
72602;DHT22;60644;55.858;37.390;2023-03-01T03:27:48;-4.60;56.32
72602;DHT22;60644;55.858;37.390;2023-03-01T03:30:19;-4.76;56.92
72602;DHT22;60644;55.858;37.390;2023-03-01T03:32:46;-4.74;57.28
72602;DHT22;60644;55.858;37.390;2023-03-01T03:35:25;-4.78;57.26
72602;DHT22;60644;55.858;37.390;2023-03-01T03:37:51;-4.78;57.32
72602;DHT22;60644;55.858;37.390;2023-03-01T03:43:00;-4.70;57.17
72602;DHT22;60644;55.858;37.390;2023-03-01T03:45:27;-4.67;56.89
72602;DHT22;60644;55.858;37.390;2023-03-01T03:47:52;-4.65;57.04
72602;DHT22;60644;55.858;37.390;2023-03-01T03:50:19;-4.63;56.93
72602;DHT22;60644;55.858;37.390;2023-03-01T03:52:44;-4.59;57.17
72602;DHT22;60644;55.858;37.390;2023-03-01T03:55:11;-4.60;57.20
72602;DHT22;60644;55.858;37.390;2023-03-01T03:57:42;-4.55;56.90
72602;DHT22;60644;55.858;37.390;2023-03-01T04:00:12;-4.64;56.74
72602;DHT22;60644;55.858;37.390;2023-03-01T04:02:42;-4.63;56.87
72602;DHT22;60644;55.858;37.390;2023-03-01T04:05:10;-4.59;57.32
72602;DHT22;60644;55.858;37.390;2023-03-01T04:07:36;-4.67;57.17
72602;DHT22;60644;55.858;37.390;2023-03-01T04:10:08;-4.67;57.47
72602;DHT22;60644;55.858;37.390;2023-03-01T04:12:34;-4.66;57.02
72602;DHT22;60644;55.858;37.390;2023-03-01T04:15:01;-4.65;57.22
72602;DHT22;60644;55.858;37.390;2023-03-01T04:17:34;-4.71;57.12
72602;DHT22;60644;55.858;37.390;2023-03-01T04:20:00;-4.73;57.38
72602;DHT22;60644;55.858;37.390;2023-03-01T04:22:31;-4.70;57.55
72602;DHT22;60644;55.858;37.390;2023-03-01T04:24:57;-4.65;57.71
72602;DHT22;60644;55.858;37.390;2023-03-01T04:27:23;-4.68;57.42
72602;DHT22;60644;55.858;37.390;2023-03-01T04:29:50;-4.71;57.58
72602;DHT22;60644;55.858;37.390;2023-03-01T04:32:16;-4.81;58.25
72602;DHT22;60644;55.858;37.390;2023-03-01T04:34:43;-4.86;57.96
72602;DHT22;60644;55.858;37.390;2023-03-01T04:37:09;-4.90;58.00
72602;DHT22;60644;55.858;37.390;2023-03-01T04:39:34;-4.94;58.32
72602;DHT22;60644;55.858;37.390;2023-03-01T04:42:14;-4.99;58.35
72602;DHT22;60644;55.858;37.390;2023-03-01T04:44:40;-4.99;58.36
72602;DHT22;60644;55.858;37.390;2023-03-01T04:47:06;-4.94;58.61
72602;DHT22;60644;55.858;37.390;2023-03-01T04:49:32;-4.86;58.30
72602;DHT22;60644;55.858;37.390;2023-03-01T04:51:58;-4.86;58.35
72602;DHT22;60644;55.858;37.390;2023-03-01T04:54:31;-4.94;58.40
72602;DHT22;60644;55.858;37.390;2023-03-01T04:56:58;-4.94;58.43
72602;DHT22;60644;55.858;37.390;2023-03-01T04:59:24;-4.91;58.44
72602;DHT22;60644;55.858;37.390;2023-03-01T05:01:51;-4.86;58.35
72602;DHT22;60644;55.858;37.390;2023-03-01T05:04:17;-4.81;58.16
72602;DHT22;60644;55.858;37.390;2023-03-01T05:06:44;-4.82;58.02
72602;DHT22;60644;55.858;37.390;2023-03-01T05:09:10;-4.83;58.55
72602;DHT22;60644;55.858;37.390;2023-03-01T05:11:37;-4.78;58.41
72602;DHT22;60644;55.858;37.390;2023-03-01T05:14:04;-4.75;58.02
72602;DHT22;60644;55.858;37.390;2023-03-01T05:16:30;-4.75;57.74
72602;DHT22;60644;55.858;37.390;2023-03-01T05:18:58;-4.70;57.91
72602;DHT22;60644;55.858;37.390;2023-03-01T05:21:24;-4.64;58.66
72602;DHT22;60644;55.858;37.390;2023-03-01T05:23:50;-4.65;58.39
72602;DHT22;60644;55.858;37.390;2023-03-01T05:26:20;-4.63;58.21
72602;DHT22;60644;55.858;37.390;2023-03-01T05:28:54;-4.64;57.85
72602;DHT22;60644;55.858;37.390;2023-03-01T05:31:24;-4.57;57.90
72602;DHT22;60644;55.858;37.390;2023-03-01T05:33:50;-4.50;58.24
72602;DHT22;60644;55.858;37.390;2023-03-01T05:36:16;-4.54;57.64
72602;DHT22;60644;55.858;37.390;2023-03-01T05:38:43;-4.50;57.80
72602;DHT22;60644;55.858;37.390;2023-03-01T05:41:14;-4.45;57.38
72602;DHT22;60644;55.858;37.390;2023-03-01T05:43:43;-4.40;57.55
72602;DHT22;60644;55.858;37.390;2023-03-01T05:46:10;-4.30;57.68
72602;DHT22;60644;55.858;37.390;2023-03-01T05:48:38;-4.23;57.39
72602;DHT22;60644;55.858;37.390;2023-03-01T05:51:04;-4.22;57.63
72602;DHT22;60644;55.858;37.390;2023-03-01T05:53:30;-4.26;57.47
72602;DHT22;60644;55.858;37.390;2023-03-01T05:55:56;-4.28;57.43
72602;DHT22;60644;55.858;37.390;2023-03-01T05:58:22;-4.38;57.32
72602;DHT22;60644;55.858;37.390;2023-03-01T06:00:48;-4.39;57.19
72602;DHT22;60644;55.858;37.390;2023-03-01T06:03:15;-4.38;57.57
72602;DHT22;60644;55.858;37.390;2023-03-01T06:05:42;-4.35;57.66
72602;DHT22;60644;55.858;37.390;2023-03-01T06:08:09;-4.24;57.41
72602;DHT22;60644;55.858;37.390;2023-03-01T06:10:35;-4.06;57.29
72602;DHT22;60644;55.858;37.390;2023-03-01T06:13:01;-4.01;56.58
72602;DHT22;60644;55.858;37.390;2023-03-01T06:15:27;-3.89;57.34
72602;DHT22;60644;55.858;37.390;2023-03-01T06:17:54;-3.82;56.68
72602;DHT22;60644;55.858;37.390;2023-03-01T06:20:25;-3.69;57.45
72602;DHT22;60644;55.858;37.390;2023-03-01T06:22:52;-3.58;56.32
72602;DHT22;60644;55.858;37.390;2023-03-01T06:25:20;-3.62;55.26
72602;DHT22;60644;55.858;37.390;2023-03-01T06:27:47;-3.53;55.74
72602;DHT22;60644;55.858;37.390;2023-03-01T06:30:18;-3.60;55.31
72602;DHT22;60644;55.858;37.390;2023-03-01T06:32:44;-3.58;55.78
72602;DHT22;60644;55.858;37.390;2023-03-01T06:35:11;-3.48;55.10
72602;DHT22;60644;55.858;37.390;2023-03-01T06:37:38;-3.39;56.74
72602;DHT22;60644;55.858;37.390;2023-03-01T06:40:04;-3.37;56.23
72602;DHT22;60644;55.858;37.390;2023-03-01T06:42:38;-3.32;55.84
72602;DHT22;60644;55.858;37.390;2023-03-01T06:45:05;-3.28;55.28
72602;DHT22;60644;55.858;37.390;2023-03-01T06:47:32;-3.22;55.45
72602;DHT22;60644;55.858;37.390;2023-03-01T06:50:02;-3.32;55.67
72602;DHT22;60644;55.858;37.390;2023-03-01T06:52:29;-3.22;56.09
72602;DHT22;60644;55.858;37.390;2023-03-01T06:54:55;-3.21;56.04
72602;DHT22;60644;55.858;37.390;2023-03-01T06:57:21;-3.25;55.67
72602;DHT22;60644;55.858;37.390;2023-03-01T06:59:47;-3.28;55.83
72602;DHT22;60644;55.858;37.390;2023-03-01T07:02:13;-3.27;56.19
72602;DHT22;60644;55.858;37.390;2023-03-01T07:04:40;-3.25;56.61
72602;DHT22;60644;55.858;37.390;2023-03-01T07:07:06;-3.25;56.93
72602;DHT22;60644;55.858;37.390;2023-03-01T07:09:32;-3.27;56.64
72602;DHT22;60644;55.858;37.390;2023-03-01T07:11:58;-3.30;56.79
72602;DHT22;60644;55.858;37.390;2023-03-01T07:14:24;-3.42;57.05
72602;DHT22;60644;55.858;37.390;2023-03-01T07:16:54;-3.36;57.22
72602;DHT22;60644;55.858;37.390;2023-03-01T07:19:21;-3.23;57.44
72602;DHT22;60644;55.858;37.390;2023-03-01T07:21:47;-3.16;56.78
72602;DHT22;60644;55.858;37.390;2023-03-01T07:24:13;-3.03;56.86
72602;DHT22;60644;55.858;37.390;2023-03-01T07:26:39;-2.81;56.93
72602;DHT22;60644;55.858;37.390;2023-03-01T07:29:07;-2.81;55.47
72602;DHT22;60644;55.858;37.390;2023-03-01T07:31:33;-2.83;55.69
72602;DHT22;60644;55.858;37.390;2023-03-01T07:33:59;-2.86;56.62
72602;DHT22;60644;55.858;37.390;2023-03-01T07:36:25;-2.77;56.35
72602;DHT22;60644;55.858;37.390;2023-03-01T07:38:50;-2.63;56.68
72602;DHT22;60644;55.858;37.390;2023-03-01T07:41:17;-2.69;55.45
72602;DHT22;60644;55.858;37.390;2023-03-01T07:43:43;-2.68;56.36
72602;DHT22;60644;55.858;37.390;2023-03-01T07:46:10;-2.56;56.48
72602;DHT22;60644;55.858;37.390;2023-03-01T07:48:35;-2.62;55.61
72602;DHT22;60644;55.858;37.390;2023-03-01T07:51:03;-2.60;56.31
72602;DHT22;60644;55.858;37.390;2023-03-01T07:53:30;-2.66;56.07
72602;DHT22;60644;55.858;37.390;2023-03-01T07:56:16;-2.50;55.98
72602;DHT22;60644;55.858;37.390;2023-03-01T07:58:44;-2.41;56.65
72602;DHT22;60644;55.858;37.390;2023-03-01T08:01:13;-2.37;54.68
72602;DHT22;60644;55.858;37.390;2023-03-01T08:03:39;-2.35;54.80
72602;DHT22;60644;55.858;37.390;2023-03-01T08:06:08;-2.37;55.39
72602;DHT22;60644;55.858;37.390;2023-03-01T08:08:34;-2.41;55.32
72602;DHT22;60644;55.858;37.390;2023-03-01T08:11:03;-2.52;54.13
72602;DHT22;60644;55.858;37.390;2023-03-01T08:13:30;-2.54;55.13
72602;DHT22;60644;55.858;37.390;2023-03-01T08:16:04;-2.59;55.31
72602;DHT22;60644;55.858;37.390;2023-03-01T08:18:30;-2.52;55.13
72602;DHT22;60644;55.858;37.390;2023-03-01T08:21:00;-2.49;54.23
72602;DHT22;60644;55.858;37.390;2023-03-01T08:23:26;-2.56;54.87
72602;DHT22;60644;55.858;37.390;2023-03-01T08:25:52;-2.67;55.13
72602;DHT22;60644;55.858;37.390;2023-03-01T08:28:18;-2.57;54.62
72602;DHT22;60644;55.858;37.390;2023-03-01T08:30:44;-2.53;55.40
72602;DHT22;60644;55.858;37.390;2023-03-01T08:33:10;-2.42;54.39
72602;DHT22;60644;55.858;37.390;2023-03-01T08:35:35;-2.35;54.85
72602;DHT22;60644;55.858;37.390;2023-03-01T08:38:01;-2.34;54.79
72602;DHT22;60644;55.858;37.390;2023-03-01T08:40:27;-2.24;55.07
72602;DHT22;60644;55.858;37.390;2023-03-01T08:42:53;-2.10;54.86
72602;DHT22;60644;55.858;37.390;2023-03-01T08:45:18;-2.03;54.19
72602;DHT22;60644;55.858;37.390;2023-03-01T08:47:44;-1.97;55.51
72602;DHT22;60644;55.858;37.390;2023-03-01T08:50:10;-2.16;54.54
72602;DHT22;60644;55.858;37.390;2023-03-01T08:52:36;-2.26;53.74
72602;DHT22;60644;55.858;37.390;2023-03-01T08:55:02;-2.24;55.12
72602;DHT22;60644;55.858;37.390;2023-03-01T08:57:29;-2.09;55.46
72602;DHT22;60644;55.858;37.390;2023-03-01T08:59:55;-2.22;55.03
72602;DHT22;60644;55.858;37.390;2023-03-01T09:02:22;-2.29;54.36
72602;DHT22;60644;55.858;37.390;2023-03-01T09:04:47;-2.34;54.65
72602;DHT22;60644;55.858;37.390;2023-03-01T09:07:13;-2.30;54.92
72602;DHT22;60644;55.858;37.390;2023-03-01T09:09:39;-2.27;55.00
72602;DHT22;60644;55.858;37.390;2023-03-01T09:12:05;-2.26;55.32
72602;DHT22;60644;55.858;37.390;2023-03-01T09:14:31;-2.20;55.48
72602;DHT22;60644;55.858;37.390;2023-03-01T09:16:57;-2.04;55.29
72602;DHT22;60644;55.858;37.390;2023-03-01T09:19:23;-2.07;54.99
72602;DHT22;60644;55.858;37.390;2023-03-01T09:21:49;-2.10;54.46
72602;DHT22;60644;55.858;37.390;2023-03-01T09:24:22;-2.08;54.90
72602;DHT22;60644;55.858;37.390;2023-03-01T09:26:49;-2.09;55.12
72602;DHT22;60644;55.858;37.390;2023-03-01T09:29:15;-2.09;54.73
72602;DHT22;60644;55.858;37.390;2023-03-01T09:31:42;-2.05;54.26
72602;DHT22;60644;55.858;37.390;2023-03-01T09:34:08;-1.76;55.52
72602;DHT22;60644;55.858;37.390;2023-03-01T09:36:35;-1.52;55.90
72602;DHT22;60644;55.858;37.390;2023-03-01T09:39:01;-1.32;54.44
72602;DHT22;60644;55.858;37.390;2023-03-01T09:46:45;-1.36;54.12
72602;DHT22;60644;55.858;37.390;2023-03-01T09:49:17;-1.38;53.10
72602;DHT22;60644;55.858;37.390;2023-03-01T09:51:54;-1.34;53.33
72602;DHT22;60644;55.858;37.390;2023-03-01T09:54:20;-1.42;54.84
72602;DHT22;60644;55.858;37.390;2023-03-01T10:02:30;-1.64;53.40
72602;DHT22;60644;55.858;37.390;2023-03-01T10:10:26;-1.72;52.77
72602;DHT22;60644;55.858;37.390;2023-03-01T10:12:53;-1.79;53.36
72602;DHT22;60644;55.858;37.390;2023-03-01T10:15:45;-1.83;52.86
72602;DHT22;60644;55.858;37.390;2023-03-01T10:18:17;-1.74;52.53
72602;DHT22;60644;55.858;37.390;2023-03-01T10:23:40;-1.68;53.59
72602;DHT22;60644;55.858;37.390;2023-03-01T10:29:08;-1.73;51.97
72602;DHT22;60644;55.858;37.390;2023-03-01T10:34:19;-1.62;51.84
72602;DHT22;60644;55.858;37.390;2023-03-01T10:36:51;-1.77;51.70
72602;DHT22;60644;55.858;37.390;2023-03-01T10:39:20;-1.70;52.45
72602;DHT22;60644;55.858;37.390;2023-03-01T10:41:59;-1.61;53.10
72602;DHT22;60644;55.858;37.390;2023-03-01T10:44:45;-1.56;51.69
72602;DHT22;60644;55.858;37.390;2023-03-01T10:47:15;-1.46;51.61
72602;DHT22;60644;55.858;37.390;2023-03-01T10:50:17;-1.30;51.37
72602;DHT22;60644;55.858;37.390;2023-03-01T10:52:41;-1.16;51.24
72602;DHT22;60644;55.858;37.390;2023-03-01T10:57:39;-0.84;52.03
72602;DHT22;60644;55.858;37.390;2023-03-01T11:00:28;-0.73;51.43
72602;DHT22;60644;55.858;37.390;2023-03-01T11:05:25;-0.73;49.40
72602;DHT22;60644;55.858;37.390;2023-03-01T11:07:59;-0.83;50.37
72602;DHT22;60644;55.858;37.390;2023-03-01T11:10:36;-0.81;50.46
72602;DHT22;60644;55.858;37.390;2023-03-01T11:13:16;-0.86;49.90
72602;DHT22;60644;55.858;37.390;2023-03-01T11:15:43;-0.98;49.81
72602;DHT22;60644;55.858;37.390;2023-03-01T11:18:23;-0.83;51.30
72602;DHT22;60644;55.858;37.390;2023-03-01T11:20:53;-0.71;49.61
72602;DHT22;60644;55.858;37.390;2023-03-01T11:23:22;-0.62;50.43
72602;DHT22;60644;55.858;37.390;2023-03-01T11:26:08;-0.66;48.56
72602;DHT22;60644;55.858;37.390;2023-03-01T11:28:36;-0.68;49.53
72602;DHT22;60644;55.858;37.390;2023-03-01T11:31:04;-0.60;49.05
72602;DHT22;60644;55.858;37.390;2023-03-01T11:33:47;-0.54;49.79
72602;DHT22;60644;55.858;37.390;2023-03-01T11:36:31;-0.41;50.27
72602;DHT22;60644;55.858;37.390;2023-03-01T11:39:05;-0.39;50.52
72602;DHT22;60644;55.858;37.390;2023-03-01T11:41:39;-0.44;48.00
72602;DHT22;60644;55.858;37.390;2023-03-01T11:44:24;-0.37;47.76
72602;DHT22;60644;55.858;37.390;2023-03-01T12:09:16;-0.08;47.25
72602;DHT22;60644;55.858;37.390;2023-03-01T12:17:43;0.45;46.96
72602;DHT22;60644;55.858;37.390;2023-03-01T12:25:45;0.04;46.41
72602;DHT22;60644;55.858;37.390;2023-03-01T12:33:49;-0.12;47.76
72602;DHT22;60644;55.858;37.390;2023-03-01T12:38:56;-0.06;48.61
72602;DHT22;60644;55.858;37.390;2023-03-01T12:50:20;-0.34;47.01
72602;DHT22;60644;55.858;37.390;2023-03-01T12:52:57;-0.35;50.45
72602;DHT22;60644;55.858;37.390;2023-03-01T12:55:33;-0.58;47.48
72602;DHT22;60644;55.858;37.390;2023-03-01T12:58:32;-0.55;49.09
72602;DHT22;60644;55.858;37.390;2023-03-01T13:01:31;-0.61;49.82
72602;DHT22;60644;55.858;37.390;2023-03-01T13:06:41;-0.75;49.39
72602;DHT22;60644;55.858;37.390;2023-03-01T13:09:30;-0.79;50.20
72602;DHT22;60644;55.858;37.390;2023-03-01T13:11:59;-0.80;50.88
72602;DHT22;60644;55.858;37.390;2023-03-01T13:16:52;-0.85;50.40
72602;DHT22;60644;55.858;37.390;2023-03-01T13:19:26;-0.81;52.20
72602;DHT22;60644;55.858;37.390;2023-03-01T13:21:55;-0.80;51.95
72602;DHT22;60644;55.858;37.390;2023-03-01T13:24:39;-0.79;51.37
72602;DHT22;60644;55.858;37.390;2023-03-01T13:29:44;-0.85;51.78
72602;DHT22;60644;55.858;37.390;2023-03-01T13:34:56;-0.87;51.88
72602;DHT22;60644;55.858;37.390;2023-03-01T13:37:25;-0.88;52.03
72602;DHT22;60644;55.858;37.390;2023-03-01T13:39:52;-0.88;52.60
72602;DHT22;60644;55.858;37.390;2023-03-01T13:42:36;-0.89;51.88
72602;DHT22;60644;55.858;37.390;2023-03-01T13:45:32;-0.91;52.33
72602;DHT22;60644;55.858;37.390;2023-03-01T13:47:58;-0.98;51.62
72602;DHT22;60644;55.858;37.390;2023-03-01T13:50:38;-0.97;51.17
72602;DHT22;60644;55.858;37.390;2023-03-01T13:53:06;-1.06;51.11
72602;DHT22;60644;55.858;37.390;2023-03-01T13:55:42;-1.11;50.69
72602;DHT22;60644;55.858;37.390;2023-03-01T14:00:56;-1.17;51.50
72602;DHT22;60644;55.858;37.390;2023-03-01T14:03:22;-1.13;51.90
72602;DHT22;60644;55.858;37.390;2023-03-01T14:06:13;-1.09;51.65
72602;DHT22;60644;55.858;37.390;2023-03-01T14:08:42;-1.05;52.04
72602;DHT22;60644;55.858;37.390;2023-03-01T14:21:37;-1.15;52.70
72602;DHT22;60644;55.858;37.390;2023-03-01T14:24:03;-1.21;51.88
72602;DHT22;60644;55.858;37.390;2023-03-01T14:26:29;-1.20;52.08
72602;DHT22;60644;55.858;37.390;2023-03-01T14:28:56;-1.20;52.42
72602;DHT22;60644;55.858;37.390;2023-03-01T14:31:37;-1.18;53.18
72602;DHT22;60644;55.858;37.390;2023-03-01T14:34:04;-1.20;53.06
72602;DHT22;60644;55.858;37.390;2023-03-01T14:36:33;-1.23;52.84
72602;DHT22;60644;55.858;37.390;2023-03-01T14:38:59;-1.21;53.17
72602;DHT22;60644;55.858;37.390;2023-03-01T14:41:35;-1.18;53.71
72602;DHT22;60644;55.858;37.390;2023-03-01T14:44:05;-1.21;53.65
72602;DHT22;60644;55.858;37.390;2023-03-01T14:46:37;-1.24;53.82
72602;DHT22;60644;55.858;37.390;2023-03-01T14:49:25;-1.23;54.27
72602;DHT22;60644;55.858;37.390;2023-03-01T14:51:58;-1.38;54.07
72602;DHT22;60644;55.858;37.390;2023-03-01T14:54:41;-1.35;54.19
72602;DHT22;60644;55.858;37.390;2023-03-01T14:57:25;-1.31;54.24
72602;DHT22;60644;55.858;37.390;2023-03-01T14:59:53;-1.32;53.59
72602;DHT22;60644;55.858;37.390;2023-03-01T15:02:24;-1.32;54.14
72602;DHT22;60644;55.858;37.390;2023-03-01T15:04:54;-1.30;54.07
72602;DHT22;60644;55.858;37.390;2023-03-01T15:07:26;-1.27;54.08
72602;DHT22;60644;55.858;37.390;2023-03-01T15:09:54;-1.23;54.36
72602;DHT22;60644;55.858;37.390;2023-03-01T15:12:38;-1.21;53.97
72602;DHT22;60644;55.858;37.390;2023-03-01T15:15:43;-1.23;54.46
72602;DHT22;60644;55.858;37.390;2023-03-01T15:18:20;-1.20;54.53
72602;DHT22;60644;55.858;37.390;2023-03-01T15:20:48;-1.21;54.79
72602;DHT22;60644;55.858;37.390;2023-03-01T15:25:49;-1.28;54.74
72602;DHT22;60644;55.858;37.390;2023-03-01T15:28:32;-1.28;54.07
72602;DHT22;60644;55.858;37.390;2023-03-01T15:31:03;-1.30;54.08
72602;DHT22;60644;55.858;37.390;2023-03-01T15:33:37;-1.26;55.07
72602;DHT22;60644;55.858;37.390;2023-03-01T15:36:30;-1.25;53.68
72602;DHT22;60644;55.858;37.390;2023-03-01T15:38:58;-1.26;53.40
72602;DHT22;60644;55.858;37.390;2023-03-01T15:41:31;-1.25;54.26
72602;DHT22;60644;55.858;37.390;2023-03-01T15:43:59;-1.27;54.30
72602;DHT22;60644;55.858;37.390;2023-03-01T15:46:34;-1.46;51.46
72602;DHT22;60644;55.858;37.390;2023-03-01T15:49:05;-1.48;52.40
72602;DHT22;60644;55.858;37.390;2023-03-01T15:51:36;-1.50;52.07
72602;DHT22;60644;55.858;37.390;2023-03-01T15:54:06;-1.49;52.49
72602;DHT22;60644;55.858;37.390;2023-03-01T15:56:32;-1.43;53.78
72602;DHT22;60644;55.858;37.390;2023-03-01T15:58:59;-1.42;52.39
72602;DHT22;60644;55.858;37.390;2023-03-01T16:01:26;-1.40;53.20
72602;DHT22;60644;55.858;37.390;2023-03-01T16:03:51;-1.40;51.64
72602;DHT22;60644;55.858;37.390;2023-03-01T16:06:19;-1.40;52.78
72602;DHT22;60644;55.858;37.390;2023-03-01T16:08:45;-1.39;52.12
72602;DHT22;60644;55.858;37.390;2023-03-01T16:11:18;-1.36;52.65
72602;DHT22;60644;55.858;37.390;2023-03-01T16:13:45;-1.35;52.70
72602;DHT22;60644;55.858;37.390;2023-03-01T16:16:13;-1.36;53.16
72602;DHT22;60644;55.858;37.390;2023-03-01T16:18:46;-1.38;53.65
72602;DHT22;60644;55.858;37.390;2023-03-01T16:21:22;-1.38;53.42
72602;DHT22;60644;55.858;37.390;2023-03-01T16:23:49;-1.39;54.20
72602;DHT22;60644;55.858;37.390;2023-03-01T16:26:17;-1.42;54.39
72602;DHT22;60644;55.858;37.390;2023-03-01T16:28:44;-1.43;54.26
72602;DHT22;60644;55.858;37.390;2023-03-01T16:31:11;-1.41;54.88
72602;DHT22;60644;55.858;37.390;2023-03-01T16:33:37;-1.41;54.38
72602;DHT22;60644;55.858;37.390;2023-03-01T16:36:09;-1.41;55.00
72602;DHT22;60644;55.858;37.390;2023-03-01T16:38:35;-1.39;54.97
72602;DHT22;60644;55.858;37.390;2023-03-01T16:41:02;-1.42;54.31
72602;DHT22;60644;55.858;37.390;2023-03-01T16:43:29;-1.40;54.97
72602;DHT22;60644;55.858;37.390;2023-03-01T16:45:55;-1.44;55.13
72602;DHT22;60644;55.858;37.390;2023-03-01T16:48:21;-1.44;54.90
72602;DHT22;60644;55.858;37.390;2023-03-01T16:50:58;-1.43;55.32
72602;DHT22;60644;55.858;37.390;2023-03-01T16:53:24;-1.40;55.59
72602;DHT22;60644;55.858;37.390;2023-03-01T16:55:57;-1.40;55.04
72602;DHT22;60644;55.858;37.390;2023-03-01T16:58:23;-1.41;54.81
72602;DHT22;60644;55.858;37.390;2023-03-01T17:00:53;-1.44;55.39
72602;DHT22;60644;55.858;37.390;2023-03-01T17:03:23;-1.46;55.10
72602;DHT22;60644;55.858;37.390;2023-03-01T17:05:50;-1.46;55.24
72602;DHT22;60644;55.858;37.390;2023-03-01T17:08:16;-1.45;55.27
72602;DHT22;60644;55.858;37.390;2023-03-01T17:10:42;-1.41;55.44
72602;DHT22;60644;55.858;37.390;2023-03-01T17:13:09;-1.40;55.57
72602;DHT22;60644;55.858;37.390;2023-03-01T17:15:39;-1.40;54.92
72602;DHT22;60644;55.858;37.390;2023-03-01T17:18:07;-1.44;55.07
72602;DHT22;60644;55.858;37.390;2023-03-01T17:20:33;-1.43;55.21
72602;DHT22;60644;55.858;37.390;2023-03-01T17:22:59;-1.41;55.83
72602;DHT22;60644;55.858;37.390;2023-03-01T17:25:24;-1.43;55.13
72602;DHT22;60644;55.858;37.390;2023-03-01T17:27:51;-1.40;55.52
72602;DHT22;60644;55.858;37.390;2023-03-01T17:30:17;-1.41;55.17